11:26
Airports
History
Links
Donate
Help keep this website running!
PayPal
Bitcoin
This page is community maintained. The information is intended for PC simulator navigation or reference.
Always use approved charts for navigation.
ETHF
FRITZLAR
FRITZLAR (ETHF)
Fritzlar, Hessen, Germany (34560)
(C)
Lat/Lng:51° 6' 52.07" N / 9° 17' 9.46" E
51.114465 / 9.28596
Elevation:566'ft / 173mMSL
ID / ICAO:ETHF
Runways:1
Longest:12-30
Asphalt 1,046m / 3,432ft
Controlled:Yes
METAR11:20 GMT 2017-12-11
Altimeter: 28.97
Visibility: 4.3 statute miles
Wind: 2 knots (from 350°)
Temp: 2°c / 36°f
Humidity: 100.0%

METAR: ETHF 111120Z 35002KT 7000 -RA SCT009 BKN020 OVC030 02/02 Q0981 RERA WHT BLU TEMPO GRN

(Powered by phpweather)
Airport Radio Frequencies
Tower: 122.1
Approach: 124.42, 123.3, 135.6, 139.95
Nearby VORs <50NM
Nearby NDBs
Runway 12 / 30
Dimensions:1046.1 x 29.9m 3432' x 98'ft
Surface:Asphalt
Edge Lights:High intensity
Runway 12 [A]Runway 30 [B]
Heading:119°TH 299°TH
Lat:
Lng:
51° 7' 0.34"N
9° 16' 45.91"E
51° 6' 43.8"N
9° 17' 33"E
ALS:MALS
User Notes and Comments
51° 6' 52.07" N / 9° 17' 9.46" E
Distance To
Airport ID:
Nearby Airports
(C) Kassel Calden 20.6 NM
EDVK ( WX ) N 10°
(U) Bad Hersfeld 26.2 NM
EDEN SE 135°
(C) Marburg Schoenstadt 26.4 NM
EDFN SW 231°
(U) ALLENDORF EDER 26.8 NM
EDFQ WSW 258°
4 Amoeneburg glider field 27.9 NM
EDX3 SW 216°
4 Lauterbach 30.3 NM
EDFT S 169°
(C) Brilon Hochsauerland 34.1 NM
EDKO NW 306°
VFR Chart
Flight Planning at SkyVector.com